Brownstown, Illinois
Current Conditions -  °F | °C
As of 3:35 AM on Saturday 25 Oct 2014 (Local Time) from K1H2 Reporting Station
Overcast Overcast  
Wind Chill: 60°   Ceiling: 5000
Heat Index: 60°   Visibility: 10mi
Dew Point: 51°   Wind: 5mph
Humidity: 72%   Direction: 230°SW
Pressure: 29.97"   Gusts: NA
Location:  39°N, 88.95°W
Report Text: K1H2 250835Z AUTO 23004KT 10SM SCT040 OVC050 16/11 A2997 RMK AO2 T01570106
Loading
Personal Weather Stations






























Interactive Weather Map
Tropical Storm Tracking
New forecast layout! Learn more

10-Day Weather Forecast

Advertisements
Track Severe Weather on mobile